MV Finola — OULQ2 — position and weather

sailwx.info

Track history (hours):
 
Tides and Currents Weather Stations Pressure Air Temp Water Temp Dewpoint Dewpoint Depression Visibility Wind Speed Wind Dir Waves Ship Positions

MV Finola

Last reported at 2017-Dec-15 07:41 UTC. Time now 2017-Dec-16 19:04 UTC.
Position N 33°02' E 132°09'.

Length 85 m; draft 3.5 m.

Type: Cargo ship. MMSI: 219483000.

Date/timePositionNaut miles runAvg speedWind from/ knotsBaromVisibWave heightAir tempDewpointWater temp
2017-Dec-15 07:41N 33°02' E 132°09'1510.9
2017-Dec-15 06:18N 33°15' E 132°01'311.4
2017-Dec-15 06:00N 33°18' E 131°59'511.0
2017-Dec-15 05:30N 33°23' E 131°56'611.4
2017-Dec-15 05:00N 33°28' E 131°54'611.5
2017-Dec-15 04:30N 33°33' E 131°50'611.8
2017-Dec-15 04:00N 33°38' E 131°47'14 9.6
2017-Dec-15 02:30N 33°47' E 131°33'14 9.7
2017-Dec-15 01:00N 33°50' E 131°16'510.5
2017-Dec-15 00:30N 33°52' E 131°10'8 1.4
2017-Dec-14 18:31N 33°53' E 130°60'0 0.0
2017-Dec-14 18:00N 33°53' E 130°60'0 0.0
2017-Dec-14 17:30N 33°53' E 130°60'0 0.0
2017-Dec-14 17:00N 33°53' E 130°60'0 0.0
2017-Dec-14 16:30N 33°53' E 130°60'0 0.0
2017-Dec-14 16:00N 33°53' E 130°60'0 0.0
2017-Dec-14 14:57N 33°53' E 130°60'0 0.0
2017-Dec-14 14:27N 33°53' E 130°60'0 0.0
2017-Dec-14 14:00N 33°53' E 130°60'0 0.0
2017-Dec-14 13:30N 33°53' E 130°60'0 0.0
2017-Dec-14 12:57N 33°53' E 130°60'0 0.0
2017-Dec-14 12:30N 33°53' E 130°60'0 0.0
2017-Dec-14 12:00N 33°53' E 130°60'0 0.0
2017-Dec-14 11:30N 33°53' E 130°60'0 0.0
2017-Dec-14 11:00N 33°53' E 130°60'0 0.0
2017-Dec-14 10:30N 33°53' E 130°60'0 0.0
2017-Dec-14 09:57N 33°53' E 130°60'0 0.0
2017-Dec-14 09:30N 33°53' E 130°60'0 0.0
2017-Dec-14 09:00N 33°53' E 130°60'0 0.0
2017-Dec-14 08:27N 33°53' E 130°60'0 0.0
2017-Dec-14 07:57N 33°53' E 130°60'0 0.0
2017-Dec-14 07:27N 33°53' E 130°60'0 0.0
2017-Dec-14 07:00N 33°53' E 130°60'0 0.0
2017-Dec-14 06:30N 33°53' E 130°60'0 0.0
2017-Dec-14 06:00N 33°53' E 130°60'0 0.0
2017-Dec-14 05:30N 33°53' E 130°60'0 0.0
2017-Dec-14 05:00N 33°53' E 130°60'0 0.0
2017-Dec-14 04:27N 33°53' E 130°60'0 0.0
2017-Dec-14 04:00N 33°53' E 130°60'0 0.0
2017-Dec-14 03:30N 33°53' E 130°60'0 0.0
2017-Dec-14 03:00N 33°53' E 130°60'0 0.0
2017-Dec-14 02:30N 33°53' E 130°60'0 0.0
2017-Dec-14 02:00N 33°53' E 130°60'0 0.0
2017-Dec-14 01:30N 33°53' E 130°60'0 0.0
2017-Dec-14 00:57N 33°53' E 130°60'0 0.0
2017-Dec-14 00:30N 33°53' E 130°60'0 0.0
2017-Dec-14 00:00N 33°53' E 130°60'0 0.0
2017-Dec-13 23:30N 33°53' E 130°60'0 0.2
2017-Dec-13 23:01N 33°53' E 130°60'2 3.2
2017-Dec-13 22:31N 33°53' E 131°01'4 7.3
2017-Dec-13 22:00N 33°54' E 131°06'4 7.1
2017-Dec-13 21:30N 33°52' E 131°09'4 7.7
2017-Dec-13 21:00N 33°51' E 131°14'4 8.8
2017-Dec-13 20:30N 33°50' E 131°19'4 8.8
2017-Dec-13 20:01N 33°50' E 131°24'5 9.3
2017-Dec-13 19:31N 33°49' E 131°30'5 9.4
2017-Dec-13 19:00N 33°48' E 131°35'5 9.4
2017-Dec-13 18:30N 33°46' E 131°41'610.4
2017-Dec-13 17:56N 33°42' E 131°46'1310.9
2017-Dec-13 16:45N 33°31' E 131°53'511.2
2017-Dec-13 16:16N 33°26' E 131°55'410.9
2017-Dec-13 15:54N 33°22' E 131°57'510.7
2017-Dec-13 15:28N 33°18' E 131°60'  
Track history (hours):
 
Tides and Currents Weather Stations Pressure Air Temp Water Temp Dewpoint Dewpoint Depression Visibility Wind Speed Wind Dir Waves Ship Positions

MV Finola

Last reported at 2017-Dec-15 07:41 UTC. Time now 2017-Dec-16 19:04 UTC.
Position N 33°02' E 132°09'.

Length 85 m; draft 3.5 m.

Type: Cargo ship. MMSI: 219483000.

Date/timePositionNaut miles runAvg speedWind from/ knotsBaromVisibWave heightAir tempDewpointWater temp
2017-Dec-15 07:41N 33°02' E 132°09'1510.9
2017-Dec-15 06:18N 33°15' E 132°01'311.4
2017-Dec-15 06:00N 33°18' E 131°59'511.0
2017-Dec-15 05:30N 33°23' E 131°56'611.4
2017-Dec-15 05:00N 33°28' E 131°54'611.5
2017-Dec-15 04:30N 33°33' E 131°50'611.8
2017-Dec-15 04:00N 33°38' E 131°47'14 9.6
2017-Dec-15 02:30N 33°47' E 131°33'14 9.7
2017-Dec-15 01:00N 33°50' E 131°16'510.5
2017-Dec-15 00:30N 33°52' E 131°10'8 1.4
2017-Dec-14 18:31N 33°53' E 130°60'0 0.0
2017-Dec-14 18:00N 33°53' E 130°60'0 0.0
2017-Dec-14 17:30N 33°53' E 130°60'0 0.0
2017-Dec-14 17:00N 33°53' E 130°60'0 0.0
2017-Dec-14 16:30N 33°53' E 130°60'0 0.0
2017-Dec-14 16:00N 33°53' E 130°60'0 0.0
2017-Dec-14 14:57N 33°53' E 130°60'0 0.0
2017-Dec-14 14:27N 33°53' E 130°60'0 0.0
2017-Dec-14 14:00N 33°53' E 130°60'0 0.0
2017-Dec-14 13:30N 33°53' E 130°60'0 0.0
2017-Dec-14 12:57N 33°53' E 130°60'0 0.0
2017-Dec-14 12:30N 33°53' E 130°60'0 0.0
2017-Dec-14 12:00N 33°53' E 130°60'0 0.0
2017-Dec-14 11:30N 33°53' E 130°60'0 0.0
2017-Dec-14 11:00N 33°53' E 130°60'0 0.0
2017-Dec-14 10:30N 33°53' E 130°60'0 0.0
2017-Dec-14 09:57N 33°53' E 130°60'0 0.0
2017-Dec-14 09:30N 33°53' E 130°60'0 0.0
2017-Dec-14 09:00N 33°53' E 130°60'0 0.0
2017-Dec-14 08:27N 33°53' E 130°60'0 0.0
2017-Dec-14 07:57N 33°53' E 130°60'0 0.0
2017-Dec-14 07:27N 33°53' E 130°60'0 0.0
2017-Dec-14 07:00N 33°53' E 130°60'0 0.0
2017-Dec-14 06:30N 33°53' E 130°60'0 0.0
2017-Dec-14 06:00N 33°53' E 130°60'0 0.0
2017-Dec-14 05:30N 33°53' E 130°60'0 0.0
2017-Dec-14 05:00N 33°53' E 130°60'0 0.0
2017-Dec-14 04:27N 33°53' E 130°60'0 0.0
2017-Dec-14 04:00N 33°53' E 130°60'0 0.0
2017-Dec-14 03:30N 33°53' E 130°60'0 0.0
2017-Dec-14 03:00N 33°53' E 130°60'0 0.0
2017-Dec-14 02:30N 33°53' E 130°60'0 0.0
2017-Dec-14 02:00N 33°53' E 130°60'0 0.0
2017-Dec-14 01:30N 33°53' E 130°60'0 0.0
2017-Dec-14 00:57N 33°53' E 130°60'0 0.0
2017-Dec-14 00:30N 33°53' E 130°60'0 0.0
2017-Dec-14 00:00N 33°53' E 130°60'0 0.0
2017-Dec-13 23:30N 33°53' E 130°60'0 0.2
2017-Dec-13 23:01N 33°53' E 130°60'2 3.2
2017-Dec-13 22:31N 33°53' E 131°01'4 7.3
2017-Dec-13 22:00N 33°54' E 131°06'4 7.1
2017-Dec-13 21:30N 33°52' E 131°09'4 7.7
2017-Dec-13 21:00N 33°51' E 131°14'4 8.8
2017-Dec-13 20:30N 33°50' E 131°19'4 8.8
2017-Dec-13 20:01N 33°50' E 131°24'5 9.3
2017-Dec-13 19:31N 33°49' E 131°30'5 9.4
2017-Dec-13 19:00N 33°48' E 131°35'5 9.4
2017-Dec-13 18:30N 33°46' E 131°41'610.4
2017-Dec-13 17:56N 33°42' E 131°46'1310.9
2017-Dec-13 16:45N 33°31' E 131°53'511.2
2017-Dec-13 16:16N 33°26' E 131°55'410.9
2017-Dec-13 15:54N 33°22' E 131°57'510.7
2017-Dec-13 15:28N 33°18' E 131°60'  

Dump ship's entire track history